Time;durP1;ratioP1;P1;durP2;ratioP2;P2;SDS_P1;SDS_P2;PMS_P1;PMS_P2;Temp;Humidity;BMP_temperature;BMP_pressure;BME280_temperature;BME280_humidity;BME280_pressure;Samples;Min_cycle;Max_cycle;Signal;HPM_P1;HPM_P2
2023/10/25 00:00:37;;;;;;;60.08;7.68;;;22.20;99.90;;;;;;5077044;28;20027;-69
2023/10/25 00:03:03;;;;;;;;;;;22.20;99.90;;;;;;5086611;28;20030;-70
2023/10/25 00:05:35;;;;;;;47.92;8.00;;;22.20;99.90;;;;;;5094897;28;19991;-69
2023/10/25 00:08:01;;;;;;;49.63;7.07;;;22.20;99.90;;;;;;5095198;28;20040;-71
2023/10/25 00:10:27;;;;;;;64.45;8.93;;;22.20;99.90;;;;;;5076458;28;20024;-69
2023/10/25 00:12:53;;;;;;;47.28;8.68;;;22.20;99.90;;;;;;5094755;28;20060;-69
2023/10/25 00:15:21;;;;;;;51.00;8.27;;;22.20;99.90;;;;;;5094660;28;20016;-70
2023/10/25 00:17:49;;;;;;;51.75;8.60;;;22.20;99.90;;;;;;5076353;28;20440;-69
2023/10/25 00:20:15;;;;;;;59.50;8.75;;;22.20;99.90;;;;;;5094549;28;20028;-70
2023/10/25 00:22:42;;;;;;;47.72;7.80;;;22.20;99.90;;;;;;5094669;28;20472;-69
2023/10/25 00:25:08;;;;;;;63.47;8.65;;;22.10;99.90;;;;;;5078082;28;20028;-69
2023/10/25 00:27:34;;;;;;;57.70;8.80;;;22.10;99.90;;;;;;5074439;28;20036;-70
2023/10/25 00:30:00;;;;;;;58.10;8.05;;;22.10;99.90;;;;;;5056216;28;20024;-69
2023/10/25 00:32:26;;;;;;;59.25;8.45;;;22.00;99.90;;;;;;5073954;28;20100;-70
2023/10/25 00:34:52;;;;;;;66.63;8.63;;;22.00;99.90;;;;;;5074470;28;20126;-69
2023/10/25 00:37:18;;;;;;;53.38;8.13;;;22.10;99.90;;;;;;5074493;28;20106;-69
2023/10/25 00:39:44;;;;;;;45.03;8.40;;;22.00;99.90;;;;;;5074452;28;20028;-69
2023/10/25 00:42:12;;;;;;;48.70;8.30;;;22.00;99.90;;;;;;5073725;28;20434;-69
2023/10/25 00:44:38;;;;;;;47.35;7.72;;;22.00;99.90;;;;;;5074406;28;20025;-69
2023/10/25 00:47:05;;;;;;;59.60;9.02;;;22.00;99.90;;;;;;5073748;28;20029;-68
2023/10/25 00:49:32;;;;;;;51.58;8.20;;;22.00;99.90;;;;;;5092680;28;20452;-71
2023/10/25 00:51:58;;;;;;;51.40;8.48;;;22.00;99.90;;;;;;5075825;28;20032;-69
2023/10/25 00:54:25;;;;;;;51.58;7.85;;;21.90;99.90;;;;;;5094073;28;20127;-70
2023/10/25 00:56:51;;;;;;;;;;;21.90;99.90;;;;;;5094836;28;20024;-71
2023/10/25 00:59:19;;;;;;;;;;;22.00;99.90;;;;;;5088010;28;19966;-70
2023/10/25 01:01:47;;;;;;;46.58;7.68;;;22.00;99.90;;;;;;5073522;28;19904;-70
2023/10/25 01:04:13;;;;;;;53.42;8.70;;;21.90;99.90;;;;;;5073923;28;20043;-70
2023/10/25 01:06:39;;;;;;;;;;;21.80;99.90;;;;;;5073842;28;20046;-70
2023/10/25 01:09:05;;;;;;;44.88;8.85;;;21.80;99.90;;;;;;5073736;28;19908;-70
2023/10/25 01:11:32;;;;;;;55.15;8.38;;;21.80;99.90;;;;;;5073741;28;20070;-70
2023/10/25 01:13:58;;;;;;;46.83;8.93;;;21.80;99.90;;;;;;5073372;28;20090;-70
2023/10/25 01:16:24;;;;;;;54.70;8.57;;;21.80;99.90;;;;;;5073306;28;20048;-70
2023/10/25 01:18:50;;;;;;;47.65;8.43;;;21.70;99.90;;;;;;5073282;28;20020;-71
2023/10/25 01:21:17;;;;;;;53.08;8.88;;;21.70;99.90;;;;;;5091155;28;20375;-70
2023/10/25 01:23:43;;;;;;;59.08;9.15;;;21.70;99.90;;;;;;5090042;28;20016;-70
2023/10/25 01:26:09;;;;;;;46.83;8.63;;;21.70;99.90;;;;;;5074847;28;20063;-70
2023/10/25 01:28:50;;;;;;;39.67;8.20;;;21.60;99.90;;;;;;5054843;28;20068;-67
2023/10/25 01:31:24;;;;;;;56.63;8.65;;;21.60;99.90;;;;;;5072696;28;20020;-69
2023/10/25 01:33:57;;;;;;;57.38;8.32;;;21.60;99.90;;;;;;5073311;28;20031;-67
2023/10/25 01:36:23;;;;;;;51.65;8.07;;;21.50;99.90;;;;;;5073327;28;20486;-70
2023/10/25 01:38:49;;;;;;;47.03;8.05;;;21.50;99.90;;;;;;5073612;28;20409;-70
2023/10/25 01:41:18;;;;;;;53.42;8.00;;;21.50;99.90;;;;;;5072789;28;20150;-70
2023/10/25 01:43:44;;;;;;;51.90;8.43;;;21.50;99.90;;;;;;5072746;28;20032;-70
2023/10/25 01:46:10;;;;;;;44.00;8.48;;;21.50;99.90;;;;;;5072514;28;20031;-69
2023/10/25 01:48:37;;;;;;;47.78;8.77;;;21.30;99.90;;;;;;5072582;28;20459;-69
2023/10/25 01:51:06;;;;;;;48.38;8.30;;;21.20;99.90;;;;;;5070678;28;20188;-69
2023/10/25 01:53:33;;;;;;;43.83;7.65;;;21.20;99.90;;;;;;5093190;28;20107;-69
2023/10/25 01:56:00;;;;;;;59.80;9.02;;;21.30;99.90;;;;;;5093113;28;20430;-69
2023/10/25 01:58:26;;;;;;;49.85;8.20;;;21.30;99.90;;;;;;5092699;28;20529;-69
2023/10/25 02:00:52;;;;;;;55.13;8.35;;;21.30;99.90;;;;;;5074094;28;20031;-70
2023/10/25 02:03:18;;;;;;;60.08;8.10;;;21.40;99.90;;;;;;5092968;28;20051;-70
2023/10/25 02:05:44;;;;;;;64.82;8.48;;;21.40;99.90;;;;;;5092669;28;20024;-69
2023/10/25 02:08:10;;;;;;;46.65;7.30;;;21.40;99.90;;;;;;5092578;28;20448;-70
2023/10/25 02:10:36;;;;;;;57.05;7.82;;;21.50;99.90;;;;;;5092097;28;20031;-70
2023/10/25 02:13:02;;;;;;;66.20;8.60;;;21.50;99.90;;;;;;5074037;28;20056;-70
2023/10/25 02:15:28;;;;;;;67.30;8.82;;;21.60;99.90;;;;;;5092555;28;20036;-70
2023/10/25 02:17:54;;;;;;;56.60;7.57;;;21.70;99.90;;;;;;5092378;28;20031;-70
2023/10/25 02:20:20;;;;;;;59.90;8.93;;;21.70;99.90;;;;;;5092277;28;20051;-70
2023/10/25 02:22:46;;;;;;;62.38;7.65;;;21.80;99.90;;;;;;5092252;28;20027;-71
2023/10/25 02:25:12;;;;;;;77.20;8.85;;;21.90;99.90;;;;;;5092488;28;20028;-70
2023/10/25 02:27:39;;;;;;;69.63;8.20;;;22.00;99.90;;;;;;5092169;28;20101;-70
2023/10/25 02:30:05;;;;;;;77.32;8.52;;;22.00;99.90;;;;;;5092217;28;20052;-70
2023/10/25 02:32:31;;;;;;;70.47;8.35;;;22.10;99.90;;;;;;5091773;28;20024;-69
2023/10/25 02:34:57;;;;;;;61.60;8.85;;;22.10;99.90;;;;;;5092196;28;20082;-69
2023/10/25 02:37:24;;;;;;;78.45;8.45;;;22.10;99.90;;;;;;5092334;28;20107;-71
2023/10/25 02:39:51;;;;;;;70.40;8.68;;;22.10;99.90;;;;;;5091956;28;20040;-70
2023/10/25 02:42:17;;;;;;;60.88;7.53;;;22.10;99.90;;;;;;5073391;28;20040;-70
2023/10/25 02:44:43;;;;;;;69.45;8.40;;;22.10;99.90;;;;;;5091925;28;20387;-69
2023/10/25 02:47:10;;;;;;;89.70;9.73;;;22.10;99.90;;;;;;5091748;28;20507;-67
2023/10/25 02:49:36;;;;;;;73.18;8.15;;;22.20;99.90;;;;;;5082339;28;20032;-69
2023/10/25 02:52:03;;;;;;;74.93;7.93;;;22.20;99.90;;;;;;5091259;28;20028;-69
2023/10/25 02:54:29;;;;;;;85.32;9.13;;;22.20;99.90;;;;;;5071219;28;20036;-69
2023/10/25 02:56:56;;;;;;;74.93;8.30;;;22.30;99.90;;;;;;5053567;28;20025;-69
2023/10/25 02:59:21;;;;;;;;;;;22.30;99.90;;;;;;5072009;28;20150;-70
2023/10/25 03:01:47;;;;;;;65.88;7.75;;;22.30;99.90;;;;;;5071623;28;19990;-69
2023/10/25 03:04:13;;;;;;;52.88;8.30;;;22.30;99.90;;;;;;5071741;28;20078;-70
2023/10/25 03:06:39;;;;;;;63.67;8.05;;;22.30;99.90;;;;;;5072094;28;20032;-68
2023/10/25 03:09:05;;;;;;;59.03;8.07;;;22.30;99.90;;;;;;5072102;28;20602;-69
2023/10/25 03:11:31;;;;;;;70.78;7.70;;;22.20;99.90;;;;;;5053955;28;20480;-69
2023/10/25 03:13:57;;;;;;;66.25;8.30;;;22.10;99.90;;;;;;5072169;28;20349;-69
2023/10/25 03:16:23;;;;;;;69.90;7.65;;;22.10;99.90;;;;;;5072037;28;20027;-70
2023/10/25 03:18:49;;;;;;;73.88;9.00;;;22.10;99.90;;;;;;5071832;28;20031;-70
2023/10/25 03:21:15;;;;;;;59.92;7.55;;;22.10;99.90;;;;;;5090592;28;20069;-70
2023/10/25 03:23:42;;;;;;;62.97;8.35;;;22.10;99.90;;;;;;5096518;28;20136;-69
2023/10/25 03:26:09;;;;;;;79.05;8.88;;;22.10;99.90;;;;;;5096645;28;20103;-70
2023/10/25 03:28:35;;;;;;;63.42;8.35;;;22.10;99.90;;;;;;5096491;28;20032;-70
2023/10/25 03:31:07;;;;;;;53.78;7.18;;;22.10;99.90;;;;;;5096430;28;20044;-70
2023/10/25 03:33:34;;;;;;;63.38;8.77;;;22.10;99.90;;;;;;5095558;28;20024;-68
2023/10/25 03:36:00;;;;;;;64.25;9.05;;;22.10;99.90;;;;;;5092540;28;20019;-69
2023/10/25 03:38:26;;;;;;;68.80;6.90;;;22.00;99.90;;;;;;5088885;28;20024;-71
2023/10/25 03:41:06;;;;;;;63.75;8.07;;;22.00;99.90;;;;;;5090672;28;20223;-70
2023/10/25 03:43:34;;;;;;;69.15;8.95;;;22.00;99.90;;;;;;5091690;28;20167;-70
2023/10/25 03:46:07;;;;;;;62.85;7.78;;;22.00;99.90;;;;;;5079794;28;20111;-70
2023/10/25 03:48:38;;;;;;;63.60;7.13;;;22.00;99.90;;;;;;5088521;28;20547;-69
2023/10/25 03:51:07;;;;;;;67.65;7.70;;;22.10;99.90;;;;;;5091250;28;20177;-71
2023/10/25 03:53:38;;;;;;;64.55;7.88;;;22.10;99.90;;;;;;5090871;28;20056;-68
2023/10/25 03:56:04;;;;;;;69.63;8.20;;;22.10;99.90;;;;;;5093704;28;20039;-69
2023/10/25 03:58:30;;;;;;;59.47;7.65;;;22.10;99.90;;;;;;5096373;28;20035;-71
2023/10/25 04:01:04;;;;;;;72.43;8.00;;;22.10;99.90;;;;;;5094975;28;20024;-70
2023/10/25 04:03:30;;;;;;;67.25;7.53;;;22.10;99.90;;;;;;5076825;28;20020;-70
2023/10/25 04:05:56;;;;;;;63.05;7.35;;;22.10;99.90;;;;;;5095100;28;20155;-70
2023/10/25 04:08:23;;;;;;;53.35;8.23;;;22.10;99.90;;;;;;5095272;28;20334;-70
2023/10/25 04:10:54;;;;;;;60.47;7.80;;;22.10;99.90;;;;;;5095501;28;20031;-70
2023/10/25 04:13:21;;;;;;;53.55;8.02;;;22.10;99.90;;;;;;5095302;28;20022;-70
2023/10/25 04:16:00;;;;;;;60.50;7.30;;;22.10;99.90;;;;;;5094815;28;20032;-70
2023/10/25 04:18:28;;;;;;;57.90;7.05;;;22.10;99.90;;;;;;5095440;28;20034;-70
2023/10/25 04:21:01;;;;;;;75.85;8.70;;;22.10;99.90;;;;;;5089561;28;20085;-69
2023/10/25 04:23:30;;;;;;;65.22;7.82;;;22.00;99.90;;;;;;5084943;28;20024;-69
2023/10/25 04:26:10;;;;;;;64.57;8.02;;;22.00;99.90;;;;;;5092408;28;20029;-70
2023/10/25 04:28:38;;;;;;;57.05;7.47;;;22.00;99.90;;;;;;5084077;28;20037;-71
2023/10/25 04:31:04;;;;;;;58.40;7.68;;;22.10;99.90;;;;;;5074974;28;20034;-70
2023/10/25 04:33:30;;;;;;;65.07;8.38;;;22.00;99.90;;;;;;5075231;28;20036;-69
2023/10/25 04:35:56;;;;;;;71.97;7.88;;;22.00;99.90;;;;;;5075580;28;20028;-69
2023/10/25 04:38:23;;;;;;;70.30;8.70;;;22.00;99.90;;;;;;5075488;28;20016;-70
2023/10/25 04:40:53;;;;;;;64.50;7.30;;;22.00;99.90;;;;;;5075003;28;20029;-71
2023/10/25 04:43:19;;;;;;;64.68;8.88;;;22.00;99.90;;;;;;5075210;28;20064;-69
2023/10/25 04:45:46;;;;;;;65.50;8.38;;;22.10;99.90;;;;;;5074717;28;20039;-70
2023/10/25 04:48:12;;;;;;;74.10;7.97;;;22.10;99.90;;;;;;5075043;28;20032;-71
2023/10/25 04:50:38;;;;;;;59.15;8.25;;;22.00;99.90;;;;;;5087611;28;20042;-71
2023/10/25 04:53:05;;;;;;;72.82;9.25;;;22.00;99.90;;;;;;5095023;28;20031;-70
2023/10/25 04:55:34;;;;;;;62.17;8.18;;;22.00;99.90;;;;;;5094743;28;20027;-71
2023/10/25 04:58:00;;;;;;;62.42;8.10;;;22.10;99.90;;;;;;5095016;28;20033;-71
2023/10/25 05:00:27;;;;;;;;;;;22.10;99.90;;;;;;5096032;28;20103;-70
2023/10/25 05:02:54;;;;;;;66.65;7.75;;;22.10;99.90;;;;;;5094788;28;19927;-70
2023/10/25 05:05:20;;;;;;;52.20;7.70;;;22.10;99.90;;;;;;5094437;28;20452;-70
2023/10/25 05:07:46;;;;;;;60.15;8.65;;;22.10;99.90;;;;;;5076018;28;20072;-70
2023/10/25 05:10:13;;;;;;;59.08;7.20;;;22.10;99.90;;;;;;5094422;28;20047;-70
2023/10/25 05:12:45;;;;;;;65.50;7.57;;;22.10;99.90;;;;;;5094360;28;20122;-70
2023/10/25 05:15:13;;;;;;;63.10;7.32;;;22.10;99.90;;;;;;5094846;28;20031;-70
2023/10/25 05:17:40;;;;;;;68.53;7.53;;;22.10;99.90;;;;;;5094307;28;20432;-70
2023/10/25 05:20:12;;;;;;;69.45;7.45;;;22.10;99.90;;;;;;5095041;28;20444;-68
2023/10/25 05:22:42;;;;;;;68.65;8.68;;;22.10;99.90;;;;;;5077791;28;20039;-71
2023/10/25 05:25:10;;;;;;;61.42;7.63;;;22.10;99.90;;;;;;5076170;28;20027;-71
2023/10/25 05:27:37;;;;;;;67.20;8.55;;;22.10;99.90;;;;;;5093924;28;20032;-70
2023/10/25 05:30:07;;;;;;;54.38;7.80;;;22.10;99.90;;;;;;5075615;28;20027;-70
2023/10/25 05:32:35;;;;;;;75.43;8.25;;;22.20;99.90;;;;;;5069305;28;20032;-70
2023/10/25 05:35:03;;;;;;;82.40;8.18;;;22.20;99.90;;;;;;5077600;28;20016;-70
2023/10/25 05:37:31;;;;;;;83.97;9.18;;;22.20;99.90;;;;;;5093769;28;20161;-70
2023/10/25 05:39:57;;;;;;;66.20;8.73;;;22.20;99.90;;;;;;5093783;28;20116;-69
2023/10/25 05:42:24;;;;;;;65.95;7.38;;;22.10;99.90;;;;;;5076053;28;20052;-70
2023/10/25 05:44:56;;;;;;;;;;;22.10;99.90;;;;;;5072617;28;20130;-70
2023/10/25 05:47:26;;;;;;;68.90;9.43;;;22.00;99.90;;;;;;5054528;28;19935;-70
2023/10/25 05:49:53;;;;;;;70.22;8.65;;;21.90;99.90;;;;;;5078935;28;20322;-69
2023/10/25 05:52:19;;;;;;;;;;;21.80;99.90;;;;;;5093293;28;20078;-67
2023/10/25 05:54:46;;;;;;;52.97;7.82;;;21.90;99.90;;;;;;5092564;28;19999;-69
2023/10/25 05:57:13;;;;;;;59.45;7.53;;;21.80;99.90;;;;;;5086152;28;20028;-68
2023/10/25 05:59:40;;;;;;;55.80;7.97;;;21.80;99.90;;;;;;5092886;28;20028;-69
2023/10/25 06:02:14;;;;;;;77.65;8.43;;;21.80;99.90;;;;;;5092404;28;20452;-70
2023/10/25 06:04:42;;;;;;;72.38;9.00;;;21.60;99.90;;;;;;5092357;28;20110;-70
2023/10/25 06:07:10;;;;;;;51.70;8.20;;;21.50;99.90;;;;;;5092492;28;20440;-70
2023/10/25 06:09:37;;;;;;;63.50;8.30;;;21.50;99.90;;;;;;5093096;28;20034;-71
2023/10/25 06:12:05;;;;;;;58.00;8.98;;;21.60;99.90;;;;;;5092848;28;20062;-70
2023/10/25 06:14:32;;;;;;;61.75;9.20;;;21.70;99.90;;;;;;5093081;28;20421;-69
2023/10/25 06:16:59;;;;;;;51.13;8.13;;;21.80;99.90;;;;;;5089938;28;20078;-70
2023/10/25 06:19:26;;;;;;;65.60;8.45;;;21.70;99.90;;;;;;5084564;28;20040;-72
2023/10/25 06:21:52;;;;;;;46.92;8.77;;;21.60;99.90;;;;;;5072559;28;20028;-71
2023/10/25 06:24:18;;;;;;;;;;;21.60;99.90;;;;;;5073581;28;20055;-71
2023/10/25 06:26:44;;;;;;;52.17;8.27;;;21.70;99.90;;;;;;5072570;28;19908;-69
2023/10/25 06:29:11;;;;;;;56.08;8.13;;;21.60;99.90;;;;;;5072285;28;20028;-71
2023/10/25 06:31:37;;;;;;;52.97;8.52;;;21.60;99.90;;;;;;5071963;28;20021;-70
2023/10/25 06:34:03;;;;;;;51.55;8.20;;;21.60;99.90;;;;;;5072401;28;20106;-70
2023/10/25 06:36:33;;;;;;;56.53;8.90;;;21.60;99.90;;;;;;5072485;28;20096;-75
2023/10/25 06:39:04;;;;;;;43.58;7.70;;;21.70;99.90;;;;;;5072133;28;20102;-75
2023/10/25 06:41:32;;;;;;;60.30;8.65;;;21.80;99.90;;;;;;5071904;28;20048;-70
2023/10/25 06:43:58;;;;;;;62.60;7.80;;;21.90;99.90;;;;;;5071966;28;20379;-69
2023/10/25 06:46:24;;;;;;;;;;;22.00;99.90;;;;;;5072430;28;20033;-71
2023/10/25 06:48:52;;;;;;;54.53;7.65;;;22.10;99.90;;;;;;5053679;28;19913;-71
2023/10/25 06:51:19;;;;;;;54.67;8.13;;;22.20;99.90;;;;;;5089981;28;20497;-71
2023/10/25 06:53:46;;;;;;;53.75;8.48;;;22.20;99.90;;;;;;5091842;28;20028;-70
2023/10/25 06:56:12;;;;;;;59.30;8.73;;;22.10;99.90;;;;;;5091973;28;20135;-71
2023/10/25 06:58:40;;;;;;;54.95;8.27;;;22.10;99.90;;;;;;5092195;28;20320;-71
2023/10/25 07:01:07;;;;;;;55.92;8.80;;;22.10;99.90;;;;;;5073744;28;20032;-70
2023/10/25 07:03:37;;;;;;;50.42;8.10;;;22.10;99.90;;;;;;5091541;28;20136;-71
2023/10/25 07:06:04;;;;;;;55.88;8.05;;;22.00;99.90;;;;;;5091653;28;20031;-71
2023/10/25 07:08:31;;;;;;;50.05;8.93;;;22.00;99.90;;;;;;5091710;28;20036;-72
2023/10/25 07:10:59;;;;;;;51.17;8.68;;;22.00;99.90;;;;;;5091503;28;20024;-72
2023/10/25 07:13:29;;;;;;;62.50;9.70;;;22.00;99.90;;;;;;5091573;28;20058;-70
2023/10/25 07:15:56;;;;;;;45.75;9.15;;;21.90;99.90;;;;;;5092645;28;20371;-72
2023/10/25 07:18:23;;;;;;;56.15;8.68;;;21.90;99.90;;;;;;5091760;28;20477;-71
2023/10/25 07:20:50;;;;;;;;;;;21.70;99.90;;;;;;5092201;28;20024;-70
2023/10/25 07:23:17;;;;;;;54.33;8.35;;;21.40;99.90;;;;;;5091986;28;20225;-71
2023/10/25 07:25:43;;;;;;;;;;;21.20;99.90;;;;;;5092208;28;20032;-71
2023/10/25 07:28:09;;;;;;;57.33;7.88;;;21.40;99.90;;;;;;5073049;28;20344;-69
2023/10/25 07:30:35;;;;;;;55.50;8.95;;;21.60;99.90;;;;;;5073031;28;20157;-70
2023/10/25 07:33:02;;;;;;;53.72;8.48;;;21.70;99.90;;;;;;5106771;28;20035;-70
2023/10/25 07:35:28;;;;;;;55.88;9.07;;;21.80;99.90;;;;;;5091921;28;20021;-72
2023/10/25 07:37:54;;;;;;;66.07;10.50;;;21.80;99.90;;;;;;5073602;28;20104;-71
2023/10/25 07:40:20;;;;;;;54.03;10.10;;;21.70;99.90;;;;;;5086479;28;20043;-71
2023/10/25 07:42:49;;;;;;;60.58;9.88;;;21.70;99.90;;;;;;5049428;28;20144;-71
2023/10/25 07:45:15;;;;;;;53.75;8.95;;;21.80;99.90;;;;;;5051312;28;20029;-72
2023/10/25 07:47:41;;;;;;;44.25;7.90;;;21.90;99.90;;;;;;5050902;28;20048;-71
2023/10/25 07:50:08;;;;;;;50.60;8.13;;;22.00;99.90;;;;;;5053913;28;20471;-71
2023/10/25 07:52:37;;;;;;;52.33;8.05;;;22.10;99.90;;;;;;5051656;28;20021;-71
2023/10/25 07:55:06;;;;;;;68.10;8.32;;;22.30;99.90;;;;;;5050832;28;20028;-70
2023/10/25 07:57:33;;;;;;;57.50;8.07;;;22.30;99.90;;;;;;5050897;28;20093;-72
2023/10/25 07:59:59;;;;;;;65.63;13.32;;;22.40;99.90;;;;;;5049395;28;20037;-72
2023/10/25 08:02:25;;;;;;;66.45;18.33;;;22.20;99.90;;;;;;5050533;28;20107;-68
2023/10/25 08:04:51;;;;;;;57.35;11.95;;;21.90;99.90;;;;;;5051222;28;20021;-69
2023/10/25 08:07:17;;;;;;;64.15;10.25;;;21.80;99.90;;;;;;5054997;28;20505;-68
2023/10/25 08:09:46;;;;;;;61.53;11.55;;;21.80;99.90;;;;;;5073160;28;20444;-68
2023/10/25 08:12:12;;;;;;;62.58;10.27;;;21.80;99.90;;;;;;5075174;28;20028;-70
2023/10/25 08:14:38;;;;;;;55.50;8.70;;;21.80;99.90;;;;;;5074704;28;20036;-69
2023/10/25 08:17:04;;;;;;;46.30;7.97;;;21.90;99.90;;;;;;5074709;28;20032;-71
2023/10/25 08:19:31;;;;;;;54.15;8.68;;;22.00;99.90;;;;;;5074684;28;20057;-70
2023/10/25 08:21:57;;;;;;;67.18;9.35;;;22.20;99.90;;;;;;5069117;28;20037;-71
2023/10/25 08:24:26;;;;;;;52.38;8.18;;;22.30;99.90;;;;;;5063428;28;20029;-73
2023/10/25 08:26:55;;;;;;;52.90;8.55;;;22.50;99.90;;;;;;5054878;28;20413;-74
2023/10/25 08:29:21;;;;;;;62.40;8.48;;;22.70;99.90;;;;;;5054552;28;20033;-74
2023/10/25 08:31:47;;;;;;;43.25;8.32;;;22.80;99.90;;;;;;5054251;28;20100;-78
2023/10/25 08:34:13;;;;;;;51.70;8.90;;;23.00;99.90;;;;;;5053025;28;20049;-81
2023/10/25 08:36:39;;;;;;;57.70;7.90;;;23.00;99.90;;;;;;5054949;28;20025;-78
2023/10/25 08:39:05;;;;;;;39.50;7.00;;;22.90;99.90;;;;;;5054709;28;20392;-79
2023/10/25 08:41:34;;;;;;;52.20;8.18;;;22.90;99.90;;;;;;5061786;28;20055;-79
2023/10/25 08:44:00;;;;;;;60.08;9.82;;;22.80;99.90;;;;;;5074713;28;20028;-79
2023/10/25 08:46:29;;;;;;;52.40;8.23;;;22.70;99.90;;;;;;5075720;28;20032;-85
2023/10/25 08:48:55;;;;;;;52.40;8.32;;;22.70;99.90;;;;;;5057446;28;20460;-84
2023/10/25 08:51:25;;;;;;;63.67;8.68;;;22.50;99.90;;;;;;5094876;28;20055;-84
2023/10/25 08:53:53;;;;;;;62.72;8.75;;;22.50;99.90;;;;;;5067550;28;20062;-85
2023/10/25 08:56:19;;;;;;;57.13;8.50;;;22.60;99.90;;;;;;5083833;28;20031;-85
2023/10/25 08:58:45;;;;;;;54.53;10.57;;;22.80;99.90;;;;;;5058518;28;20032;-83
2023/10/25 09:01:11;;;;;;;52.15;8.93;;;23.00;99.90;;;;;;5056290;28;20110;-82
2023/10/25 09:03:40;;;;;;;61.90;9.00;;;23.00;99.90;;;;;;5074678;28;20016;-83
2023/10/25 09:06:08;;;;;;;51.50;8.07;;;23.10;99.90;;;;;;5074971;28;20133;-82
2023/10/25 09:08:35;;;;;;;49.15;7.55;;;23.30;99.90;;;;;;5056770;28;20534;-83
2023/10/25 09:11:08;;;;;;;57.90;8.38;;;23.40;99.90;;;;;;5076829;28;20033;-84
2023/10/25 09:13:41;;;;;;;40.25;7.80;;;23.30;99.90;;;;;;5074884;28;20025;-78
2023/10/25 09:16:12;;;;;;;50.50;8.82;;;23.20;99.90;;;;;;5074666;28;20483;-79
2023/10/25 09:18:40;;;;;;;67.00;8.68;;;23.30;99.90;;;;;;5080723;28;20028;-67
2023/10/25 09:21:07;;;;;;;48.72;8.95;;;23.40;99.90;;;;;;5094634;28;20020;-66
2023/10/25 09:23:34;;;;;;;48.03;8.20;;;23.60;99.90;;;;;;5095049;28;20060;-66
2023/10/25 09:26:16;;;;;;;62.00;8.48;;;23.70;99.90;;;;;;5094983;28;20107;-66
2023/10/25 09:28:45;;;;;;;49.28;7.88;;;23.60;99.90;;;;;;5095232;28;20074;-65
2023/10/25 09:31:26;;;;;;;66.70;8.48;;;23.50;99.90;;;;;;5094629;28;20051;-65
2023/10/25 09:33:53;;;;;;;49.55;7.60;;;23.60;99.90;;;;;;5094734;28;20023;-66
2023/10/25 09:36:21;;;;;;;59.45;7.65;;;23.70;99.90;;;;;;5095006;28;20027;-83
2023/10/25 09:38:52;;;;;;;49.58;7.30;;;23.60;99.90;;;;;;5095140;28;20024;-78
2023/10/25 09:41:19;;;;;;;51.78;7.50;;;23.70;99.90;;;;;;5094916;28;20483;-81
2023/10/25 09:43:52;;;;;;;49.15;6.75;;;23.70;99.90;;;;;;5095065;28;20491;-83
2023/10/25 09:46:20;;;;;;;49.13;7.05;;;23.90;99.90;;;;;;5095113;28;20076;-81
2023/10/25 09:49:04;;;;;;;47.42;7.03;;;24.10;99.90;;;;;;5095192;28;20039;-83
2023/10/25 09:51:46;;;;;;;42.65;7.75;;;24.20;99.90;;;;;;5076517;28;20024;-81
2023/10/25 09:54:13;;;;;;;56.05;7.63;;;24.30;99.90;;;;;;5076132;28;20471;-82
2023/10/25 09:56:40;;;;;;;49.88;7.22;;;24.30;99.90;;;;;;5093371;28;20031;-81
2023/10/25 09:59:12;;;;;;;57.95;7.68;;;24.60;99.90;;;;;;5094169;28;20045;-81
2023/10/25 10:01:40;;;;;;;40.13;6.03;;;24.40;99.90;;;;;;5094592;28;20028;-81
2023/10/25 10:04:20;;;;;;;57.05;6.72;;;24.40;99.90;;;;;;5094393;28;20024;-82
2023/10/25 10:07:06;;;;;;;43.80;7.10;;;24.40;99.90;;;;;;5076188;28;20471;-83
2023/10/25 10:09:40;;;;;;;44.80;6.45;;;24.10;99.90;;;;;;5093542;28;20024;-82
2023/10/25 10:12:07;;;;;;;43.38;6.50;;;24.30;99.90;;;;;;5073308;28;20083;-82
2023/10/25 10:14:35;;;;;;;61.00;7.80;;;24.30;99.90;;;;;;5064376;28;20101;-83
2023/10/25 10:17:16;;;;;;;50.72;7.38;;;24.50;99.90;;;;;;5073175;28;20032;-84
2023/10/25 10:19:48;;;;;;;39.58;6.20;;;24.40;99.90;;;;;;5070160;28;20055;-82
2023/10/25 10:22:16;;;;;;;56.65;7.00;;;24.40;99.90;;;;;;5093204;28;20035;-82
2023/10/25 10:24:44;;;;;;;49.75;6.95;;;24.70;99.90;;;;;;5090856;28;20035;-83
2023/10/25 10:27:19;;;;;;;55.58;8.23;;;24.70;99.90;;;;;;5072086;28;20110;-83
2023/10/25 10:29:49;;;;;;;51.03;7.32;;;24.70;99.90;;;;;;5054533;28;20036;-83
2023/10/25 10:32:16;;;;;;;55.58;7.43;;;24.50;99.90;;;;;;5072927;28;20476;-84
2023/10/25 10:34:52;;;;;;;47.70;7.00;;;24.60;99.90;;;;;;5073861;28;20078;-83
2023/10/25 10:37:26;;;;;;;56.30;6.88;;;24.80;99.90;;;;;;5074000;28;20033;-82
2023/10/25 10:39:58;;;;;;;50.60;7.45;;;25.10;99.90;;;;;;5055462;28;20047;-83
2023/10/25 10:42:33;;;;;;;51.90;8.63;;;25.30;99.90;;;;;;5054771;28;20151;-83
2023/10/25 10:45:05;;;;;;;39.15;5.53;;;25.50;99.90;;;;;;5055239;28;20058;-84
2023/10/25 10:47:41;;;;;;;46.65;6.95;;;25.40;99.90;;;;;;5072637;28;20044;-83
2023/10/25 10:50:18;;;;;;;39.08;6.68;;;25.40;99.90;;;;;;5072448;28;20044;-83
2023/10/25 10:52:47;;;;;;;51.22;6.78;;;25.20;99.90;;;;;;5072556;28;20042;-82
2023/10/25 10:55:24;;;;;;;58.75;7.28;;;25.40;99.90;;;;;;5090364;28;20028;-83
2023/10/25 10:57:51;;;;;;;50.53;7.35;;;25.60;99.90;;;;;;5093048;28;20129;-83
2023/10/25 11:00:18;;;;;;;41.55;6.70;;;25.80;99.90;;;;;;5076028;28;20381;-82
2023/10/25 11:02:49;;;;;;;51.92;6.93;;;26.20;99.90;;;;;;5072351;28;20103;-81
2023/10/25 11:05:19;;;;;;;56.55;7.85;;;26.50;99.90;;;;;;5071977;28;20082;-81
2023/10/25 11:07:48;;;;;;;46.97;6.95;;;26.70;99.90;;;;;;5072198;28;20082;-79
2023/10/25 11:10:14;;;;;;;51.33;6.72;;;27.10;99.90;;;;;;5071619;28;20028;-80
2023/10/25 11:12:41;;;;;;;62.70;7.38;;;27.20;99.90;;;;;;5071650;28;20081;-80
2023/10/25 11:15:09;;;;;;;52.95;7.45;;;26.70;99.90;;;;;;5053431;28;20446;-80
2023/10/25 11:17:36;;;;;;;52.47;6.63;;;26.80;99.90;;;;;;5071496;28;20036;-80
2023/10/25 11:20:02;;;;;;;48.08;6.65;;;26.90;99.90;;;;;;5061335;28;20024;-80
2023/10/25 11:22:31;;;;;;;47.63;6.65;;;26.90;99.90;;;;;;5091951;28;20101;-80
2023/10/25 11:24:59;;;;;;;41.65;6.10;;;26.90;99.90;;;;;;5091806;28;20357;-80
2023/10/25 11:27:30;;;;;;;52.47;7.05;;;27.00;99.90;;;;;;5073535;28;20113;-79
2023/10/25 11:29:57;;;;;;;49.13;7.85;;;27.10;99.90;;;;;;5092069;28;20032;-78
2023/10/25 11:32:23;;;;;;;54.20;7.85;;;27.50;99.90;;;;;;5091873;28;20028;-79
2023/10/25 11:34:56;;;;;;;51.05;7.45;;;27.60;99.90;;;;;;5091610;28;20472;-79
2023/10/25 11:37:22;;;;;;;43.78;6.97;;;27.40;99.90;;;;;;5073934;28;20110;-79
2023/10/25 11:39:56;;;;;;;52.80;8.02;;;27.70;99.90;;;;;;5073715;28;20444;-80
2023/10/25 11:42:25;;;;;;;54.40;7.25;;;27.80;99.90;;;;;;5092754;28;20052;-79
2023/10/25 11:44:53;;;;;;;52.45;8.05;;;28.10;99.90;;;;;;5077144;28;20036;-79
2023/10/25 11:47:21;;;;;;;46.50;7.40;;;28.10;99.90;;;;;;5095648;28;20448;-79
2023/10/25 11:49:58;;;;;;;52.50;7.95;;;28.10;99.90;;;;;;5077375;28;20028;-78
2023/10/25 11:52:29;;;;;;;47.92;7.50;;;28.10;99.90;;;;;;5096425;28;20023;-77
2023/10/25 11:54:56;;;;;;;47.72;8.93;;;28.30;99.90;;;;;;5095515;28;20031;-79
2023/10/25 11:57:30;;;;;;;53.40;8.25;;;28.30;99.90;;;;;;5095711;28;20031;-78
2023/10/25 11:59:56;;;;;;;49.45;8.32;;;28.20;99.90;;;;;;5097118;28;20035;-78
2023/10/25 12:02:24;;;;;;;51.75;7.75;;;27.90;99.90;;;;;;5095938;28;20036;-78
2023/10/25 12:04:51;;;;;;;54.75;7.65;;;27.80;99.90;;;;;;5076772;28;20044;-79
2023/10/25 12:07:17;;;;;;;44.80;7.03;;;27.90;99.90;;;;;;5077654;28;20380;-78
2023/10/25 12:09:45;;;;;;;49.80;8.85;;;27.70;99.90;;;;;;5095813;28;20362;-78
2023/10/25 12:12:11;;;;;;;53.33;9.15;;;27.70;99.90;;;;;;5096231;28;20512;-79
2023/10/25 12:14:42;;;;;;;60.70;11.48;;;27.70;99.90;;;;;;5096034;28;20028;-78
2023/10/25 12:37:04;;;;;;;46.03;6.57;;;27.90;99.90;;;;;;5110284;27;20444;-79
2023/10/25 12:39:31;;;;;;;61.45;7.70;;;28.10;99.90;;;;;;5080843;28;20115;-77
2023/10/25 12:41:58;;;;;;;51.47;7.30;;;28.10;99.90;;;;;;5089398;28;20063;-78
2023/10/25 12:44:24;;;;;;;63.85;7.50;;;28.20;99.90;;;;;;5085903;28;20093;-78
2023/10/25 12:46:50;;;;;;;39.72;6.60;;;28.30;99.90;;;;;;5089150;28;20336;-76
2023/10/25 12:49:18;;;;;;;45.50;6.90;;;28.40;99.90;;;;;;5082277;28;20025;-79
2023/10/25 12:51:47;;;;;;;58.63;7.00;;;28.40;99.90;;;;;;5068975;28;20094;-78
2023/10/25 12:54:13;;;;;;;53.00;7.30;;;28.50;99.90;;;;;;5069095;28;20107;-82
2023/10/25 12:56:39;;;;;;;55.35;7.55;;;28.50;99.90;;;;;;5061278;28;20048;-79
2023/10/25 12:59:06;;;;;;;45.70;6.43;;;28.60;99.90;;;;;;5089871;28;20035;-79
2023/10/25 13:01:32;;;;;;;45.55;6.72;;;28.40;99.90;;;;;;5089368;28;20036;-79
2023/10/25 13:03:58;;;;;;;57.85;6.55;;;28.30;99.90;;;;;;5071069;28;20062;-79